Agua Linda, Arizona
Current Conditions -  °F | °C
As of 1:54 AM on Friday 28 Nov 2014 (Local Time) from KOLS Reporting Station
Clear Clear  
Wind Chill: 46°   Ceiling: Unl
Heat Index: 46°   Visibility: 10mi
Dew Point: 20°   Wind: 0mph
Humidity: 35%   Direction: NA
Pressure: 30.18"   Gusts: NA
Location:  31.6134°N, 110.959°W
Report Text: KOLS 280854Z AUTO 00000KT 10SM CLR 08/M07 A3018 RMK AO2 SLP173 T00781067 57004
Loading
Personal Weather Stations






























Interactive Weather Map New forecast layout! Learn more

10-Day Weather Forecast

Advertisements
Track Severe Weather on mobile